Weather at Manresa Airport

Public forecast

Using degrees Celsius for public forecast. Weather courtesy of forecast.io.

Closest aviation weather report (METAR) to Manresa Airport

Closest report is Sabadell Airport, 18.3 nm (33.9 km) SE. Retrieved 2020/09/24 04:30 UTC (4 minutes ago):

LELL 240430Z AUTO VRB02KT CAVOK 17/15 Q1012

Closest aviation forecast (TAF) to Manresa Airport

Closest forecast is Sabadell Airport, 18.3 nm (33.9 km) SE. Retrieved 2020-09-24 03:27 UTC (1 hour ago):

TAF LELL 240200Z 2403/2503 VRB03KT 9999 FEW020 TX28/2413Z TN16/2406Z BECMG 2412/2414 27010KT PROB30 TEMPO 2414/2416 4000 RA BKN030 BECMG 2418/2420 VRB03KT